地図

経路データ

SID SEASON NUMBER BASIN SUBBASIN NAME ISO_TIME NATURE LAT LON WMO_WIND WMO_PRES WMO_AGENCY TRACK_TYPE DIST2LAND LANDFALL IFLAG USA_AGENCY USA_ATCF_ID USA_LAT USA_LON USA_RECORD USA_STATUS USA_WIND USA_PRES USA_SSHS USA_R34_NE USA_R34_SE USA_R34_SW USA_R34_NW USA_R50_NE USA_R50_SE USA_R50_SW USA_R50_NW USA_R64_NE USA_R64_SE USA_R64_SW USA_R64_NW USA_POCI USA_ROCI USA_RMW USA_EYE TOKYO_LAT TOKYO_LON TOKYO_GRADE TOKYO_WIND TOKYO_PRES TOKYO_R50_DIR TOKYO_R50_LONG TOKYO_R50_SHORT TOKYO_R30_DIR TOKYO_R30_LONG TOKYO_R30_SHORT TOKYO_LAND CMA_LAT CMA_LON CMA_CAT CMA_WIND CMA_PRES HKO_LAT HKO_LON HKO_CAT HKO_WIND HKO_PRES NEWDELHI_LAT NEWDELHI_LON NEWDELHI_GRADE NEWDELHI_WIND NEWDELHI_PRES NEWDELHI_CI NEWDELHI_DP NEWDELHI_POCI REUNION_LAT REUNION_LON REUNION_TYPE REUNION_WIND REUNION_PRES REUNION_TNUM REUNION_CI REUNION_RMW REUNION_R34_NE REUNION_R34_SE REUNION_R34_SW REUNION_R34_NW REUNION_R50_NE REUNION_R50_SE REUNION_R50_SW REUNION_R50_NW REUNION_R64_NE REUNION_R64_SE REUNION_R64_SW REUNION_R64_NW BOM_LAT BOM_LON BOM_TYPE BOM_WIND BOM_PRES BOM_TNUM BOM_CI BOM_RMW BOM_R34_NE BOM_R34_SE BOM_R34_SW BOM_R34_NW BOM_R50_NE BOM_R50_SE BOM_R50_SW BOM_R50_NW BOM_R64_NE BOM_R64_SE BOM_R64_SW BOM_R64_NW BOM_ROCI BOM_POCI BOM_EYE BOM_POS_METHOD BOM_PRES_METHOD NADI_LAT NADI_LON NADI_CAT NADI_WIND NADI_PRES WELLINGTON_LAT WELLINGTON_LON WELLINGTON_WIND WELLINGTON_PRES DS824_LAT DS824_LON DS824_STAGE DS824_WIND DS824_PRES TD9636_LAT TD9636_LON TD9636_STAGE TD9636_WIND TD9636_PRES TD9635_LAT TD9635_LON TD9635_WIND TD9635_PRES TD9635_ROCI NEUMANN_LAT NEUMANN_LON NEUMANN_CLASS NEUMANN_WIND NEUMANN_PRES MLC_LAT MLC_LON MLC_CLASS MLC_WIND MLC_PRES USA_GUST BOM_GUST BOM_GUST_PER REUNION_GUST REUNION_GUST_PER USA_SEAHGT USA_SEARAD_NE USA_SEARAD_SE USA_SEARAD_SW USA_SEARAD_NW STORM_SPEED STORM_DIR
1951046S11061 1951 14 SI MM NOT_NAMED 1951-02-15 06:00:00 TS -11.0750 61.3500 reunion main 1082 1074 O____O___OO___ jtwc_sh SH201951 -11.0000 61.8000 -1 -11.3000 60.0000 99 9.90000 -11.0000 61.8000 TC 25 -11.0000 61.8000 7 4 256
1951046S11061 1951 14 SI MM NOT_NAMED 1951-02-15 09:00:00 TS -11.1183 61.1744 main 1074 1056 P____P___PP___ SH201951 -11.0475 61.6125 -1 -11.3201 59.8974 99 -11.0475 61.6125 TC 25 -11.0579 61.5751 7 4 256
1951046S11061 1951 14 SI MM NOT_NAMED 1951-02-15 12:00:00 TS -11.1633 60.9860 main 1056 1049 O____P___OP___ jtwc_sh SH201951 -11.1000 61.4000 -1 -11.3407 59.7938 99 -11.1000 61.4000 TC 25 -11.1126 61.3501 7 4 257
1951046S11061 1951 14 SI MM NOT_NAMED 1951-02-15 15:00:00 TS -11.2096 60.7784 main 1049 1043 P____P___PP___ SH201951 -11.1575 61.1500 -1 -11.3622 59.6883 99 -11.1575 61.1500 TC 30 -11.1610 61.1251 7 4 258
1951046S11061 1951 14 SI MM NOT_NAMED 1951-02-15 18:00:00 TS -11.2463 60.5700 main 1043 1026 O____P___OO___ jtwc_sh SH201951 -11.2000 60.9000 -1 -11.3851 59.5801 99 -11.2000 60.9000 TC 35 -11.2000 60.9000 2 4 263
1951046S11061 1951 14 SI MM NOT_NAMED 1951-02-15 21:00:00 TS -11.2595 60.3857 main 1026 1020 P____P___PP___ SH201951 -11.2000 60.7000 -1 -11.4099 59.4680 99 -11.2000 60.7000 TC 35 -11.2281 60.6749 2 4 266
1951046S11061 1951 14 SI MM NOT_NAMED 1951-02-16 00:00:00 TS -11.2717 60.2003 main 1020 1015 O____P___OP___ jtwc_sh SH201951 -11.2000 60.5000 -1 -11.4369 59.3513 99 -11.2000 60.5000 TC 35 -11.2499 60.4499 2 4 263
1951046S11061 1951 14 SI MM NOT_NAMED 1951-02-16 03:00:00 TS -11.3059 59.9885 main 1015 1010 P____P___PP___ SH201951 -11.2425 60.2500 -1 -11.4668 59.2289 99 -11.2425 60.2500 TC 35 -11.2718 60.2249 2 4 259
1951046S11061 1951 14 SI MM NOT_NAMED 1951-02-16 06:00:00 TS -11.3500 59.7750 reunion main 1010 994 O____O___OO___ jtwc_sh SH201951 -11.3000 60.0000 -1 -11.5000 59.1000 99 9.90000 -11.3000 60.0000 TC 35 -11.3000 60.0000 2 4 257
1951046S11061 1951 14 SI MM NOT_NAMED 1951-02-16 09:00:00 TS -11.3959 59.5847 main 994 990 P____P___PP___ SH201951 -11.3500 59.8000 -1 -11.5368 58.9637 99 -11.3500 59.8000 TC 35 -11.3468 59.7750 2 4 256
1951046S11061 1951 14 SI MM NOT_NAMED 1951-02-16 12:00:00 TS -11.4443 59.3925 main 990 975 O____P___OP___ jtwc_sh SH201951 -11.4000 59.6000 -1 -11.5774 58.8199 99 -11.4000 59.6000 TC 35 -11.3999 59.5500 2 4 256
1951046S11061 1951 14 SI MM NOT_NAMED 1951-02-16 15:00:00 TS -11.4975 59.1734 main 975 972 P____P___PP___ SH201951 -11.4575 59.3500 -1 -11.6217 58.6686 99 -11.4575 59.3500 TC 35 -11.4531 59.3250 2 4 257
1951046S11061 1951 14 SI MM NOT_NAMED 1951-02-16 18:00:00 TS -11.5425 58.9525 main 972 958 O____P___OO___ jtwc_sh SH201951 -11.5000 59.1000 -1 -11.6698 58.5098 99 -11.5000 59.1000 TC 35 -11.5000 59.1000 2 4 261
1951046S11061 1951 14 SI MM NOT_NAMED 1951-02-16 21:00:00 TS -11.5624 58.7526 main 958 954 P____P___PP___ SH201951 -11.5000 58.9000 -1 -11.7217 58.3435 99 -11.5000 58.9000 TC 35 -11.5281 58.8668 2 4 264
1951046S11061 1951 14 SI MM NOT_NAMED 1951-02-17 00:00:00 TS -11.5818 58.5512 main 954 923 O____P___OP___ jtwc_sh SH201951 -11.5000 58.7000 -1 -11.7773 58.1698 99 -11.5000 58.7000 TC 35 -11.5500 58.6349 2 4 262
1951046S11061 1951 14 SI MM NOT_NAMED 1951-02-17 03:00:00 TS -11.6234 58.3248 main 923 899 P____P___PP___ SH201951 -11.5425 58.4500 -1 -11.8368 57.9886 99 -11.5425 58.4500 TC 35 -11.5719 58.4106 2 5 258
1951046S11061 1951 14 SI MM NOT_NAMED 1951-02-17 06:00:00 TS -11.6750 58.1000 reunion main 899 878 O____O___OO___ jtwc_sh SH201951 -11.6000 58.2000 -1 -11.9000 57.8000 99 9.90000 -11.6000 58.2000 TC 35 -11.6000 58.2000 2 4 256
1951046S11061 1951 14 SI MM NOT_NAMED 1951-02-17 09:00:00 TS -11.7242 57.9020 main 878 854 P____P___PP___ SH201951 -11.6500 57.9850 -1 -11.9541 57.6192 99 -11.6500 57.9850 TC 35 -11.6427 58.0187 2 4 255
1951046S11061 1951 14 SI MM NOT_NAMED 1951-02-17 12:00:00 TS -11.7758 57.7204 main 854 843 O____P___OP___ jtwc_sh SH201951 -11.7000 57.8000 -1 -12.0109 57.4317 99 -11.7000 57.8000 TC 35 -11.6923 57.8500 2 4 253
1951046S11061 1951 14 SI MM NOT_NAMED 1951-02-17 15:00:00 TS -11.8295 57.5543 main 843 819 P____P___PP___ SH201951 -11.7500 57.6500 -1 -12.0722 57.2362 99 -11.7500 57.6500 TC 35 -11.7458 57.6812 2 3 252
1951046S11061 1951 14 SI MM NOT_NAMED 1951-02-17 18:00:00 TS -11.8849 57.3829 main 819 798 O____P___OO___ jtwc_sh SH201951 -11.8000 57.5000 -1 -12.1395 57.0316 99 -11.8000 57.5000 TC 35 -11.8000 57.5000 2 4 253
1951046S11061 1951 14 SI MM NOT_NAMED 1951-02-17 21:00:00 TS -11.9411 57.1851 main 798 774 P____P___PP___ SH201951 -11.8500 57.3150 -1 -12.2143 56.8169 99 -11.8500 57.3150 TC 35 -11.8500 57.2934 2 4 254
1951046S11061 1951 14 SI MM NOT_NAMED 1951-02-18 00:00:00 TS -11.9996 56.9658 main 774 740 O____P___OP___ jtwc_sh SH201951 -11.9000 57.1000 -1 -12.2983 56.5908 99 -11.9000 57.1000 TC 35 -11.9000 57.0725 2 5 255
1951046S11061 1951 14 SI MM NOT_NAMED 1951-02-18 03:00:00 TS -12.0607 56.7269 main 740 719 P____P___PP___ SH201951 -11.9500 56.8575 -1 -12.3930 56.3522 99 -11.9500 56.8575 TC 35 -11.9500 56.8403 2 5 255
1951046S11061 1951 14 SI MM NOT_NAMED 1951-02-18 06:00:00 TS -12.1250 56.4750 reunion main 719 685 O____O___OO___ jtwc_sh SH201951 -12.0000 56.6000 -1 -12.5000 56.1000 99 9.90000 -12.0000 56.6000 TC 35 -12.0000 56.6000 2 5 254
1951046S11061 1951 14 SI MM NOT_NAMED 1951-02-18 09:00:00 TS -12.1958 56.2305 main 685 661 P____P___PP___ SH201951 -12.0500 56.3500 -1 -12.6292 55.8649 99 -12.0500 56.3500 TC 35 -12.0540 56.3572 2 5 253
1951046S11061 1951 14 SI MM NOT_NAMED 1951-02-18 12:00:00 TS -12.2698 55.9816 main 661 629 O____P___OP___ jtwc_sh SH201951 -12.1000 56.1000 -1 -12.7719 55.6191 99 -12.1000 56.1000 TC 35 -12.1074 56.1075 2 5 253
1951046S11061 1951 14 SI MM NOT_NAMED 1951-02-18 15:00:00 TS -12.3491 55.7282 main 629 605 P____P___PP___ SH201951 -12.1575 55.8500 -1 -12.9244 55.3585 99 -12.1575 55.8500 TC 35 -12.1571 55.8541 2 5 253
1951046S11061 1951 14 SI MM NOT_NAMED 1951-02-18 18:00:00 TS -12.4207 55.4699 main 605 571 O____P___OO___ jtwc_sh SH201951 -12.2000 55.6000 -1 -13.0829 55.0795 99 -12.2000 55.6000 TC 35 -12.2000 55.6000 2 5 257
1951046S11061 1951 14 SI MM NOT_NAMED 1951-02-18 21:00:00 TS -12.4637 55.2231 main 571 550 P____P___PP___ SH201951 -12.2000 55.3500 -1 -13.2435 54.7780 99 -12.2000 55.3500 TC 35 -12.2112 55.4146 2 5 260
1951046S11061 1951 14 SI MM NOT_NAMED 1951-02-19 00:00:00 TS -12.5054 54.9674 main 550 516 O____P___OP___ jtwc_sh SH201951 -12.2000 55.1000 -1 -13.4025 54.4501 99 -12.2000 55.1000 TC 35 -12.2189 55.2193 2 5 259
1951046S11061 1951 14 SI MM NOT_NAMED 1951-02-19 03:00:00 TS -12.5632 54.7116 main 516 484 P____P___PP___ SH201951 -12.2273 54.8949 -1 -13.5560 54.0921 99 -12.2273 54.8949 TC 35 -12.2422 54.9644 2 6 256
1951046S11061 1951 14 SI MM NOT_NAMED 1951-02-19 06:00:00 TS -12.6500 54.3750 reunion main 484 426 O____O___OO___ jtwc_sh SH201951 -12.3000 54.6000 -1 -13.7000 53.7000 99 9.90000 -12.3000 54.6000 TC 35 -12.3000 54.6000 2 8 255
1951046S11061 1951 14 SI MM NOT_NAMED 1951-02-19 09:00:00 TS -12.7785 53.8883 main 426 360 P____P___PP___ SH201951 -12.4349 54.1250 -1 -13.8255 53.2418 99 -12.4349 54.1250 TC 35 -12.4187 54.0613 2 11 255
1951046S11061 1951 14 SI MM NOT_NAMED 1951-02-19 12:00:00 TS -12.9285 53.2894 main 360 292 O____P___OP___ jtwc_sh SH201951 -12.6000 53.5000 -1 -13.9432 52.7447 99 -12.6000 53.5000 TC 35 -12.5708 53.4129 2 13 257
1951046S11061 1951 14 SI MM NOT_NAMED 1951-02-19 15:00:00 TS -13.0727 52.6146 main 281 216 P____P___PP___ SH201951 -12.7501 52.7650 -1 -14.0532 52.2203 99 -12.7501 52.7650 TC 35 -12.7374 52.7080 2 14 258
1951046S11061 1951 14 SI MM NOT_NAMED 1951-02-19 18:00:00 TS -13.2139 51.9201 main 205 141 O____P___OO___ jtwc_sh SH201951 -12.9000 52.0000 -1 -14.1558 51.6804 99 -12.9000 52.0000 TC 35 -12.9000 52.0000 2 13 258
1951046S11061 1951 14 SI MM NOT_NAMED 1951-02-19 21:00:00 TS -13.3526 51.2747 main 137 73 P____P___PP___ SH201951 -13.0573 51.3275 -1 -14.2512 51.1366 99 -13.0573 51.3275 TC 35 -13.0447 51.3071 2 13 258
1951046S11061 1951 14 SI MM NOT_NAMED 1951-02-20 00:00:00 TS -13.4802 50.6578 main 73 10 O____P___OP___ jtwc_sh SH201951 -13.2000 50.7000 -1 -14.3401 50.6007 99 -13.2000 50.7000 TC 35 -13.1806 50.6303 2 12 259
1951046S11061 1951 14 SI MM NOT_NAMED 1951-02-20 03:00:00 TS -13.5885 50.0520 main 10 0 P____P___PP___ SH201951 -13.3150 50.0550 -1 -14.4228 50.0846 99 -13.3150 50.0550 TC 35 -13.3011 50.0134 2 11 260
1951046S11061 1951 14 SI MM NOT_NAMED 1951-02-20 06:00:00 TS -13.6750 49.5250 reunion main 0 0 O____O___OO___ jtwc_sh SH201951 -13.4000 49.5000 -1 -14.5000 49.6000 99 9.90000 -13.4000 49.5000 TC 35 -13.4000 49.5000 2 9 261
1951046S11061 1951 14 SI MM NOT_NAMED 1951-02-20 09:00:00 TS -13.7353 49.1171 main 0 0 P____P___PP___ SH201951 -13.4573 49.0824 -1 -14.5639 49.1737 99 -13.4573 49.0824 TC 35 -13.4626 49.1297 2 7 261
1951046S11061 1951 14 SI MM NOT_NAMED 1951-02-20 12:00:00 TS -13.7817 48.8094 main 0 0 O____P___OP___ jtwc_sh SH201951 -13.5000 48.8000 -1 -14.6205 48.7732 99 -13.5000 48.8000 TC 35 -13.5065 48.8646 2 5 260
1951046S11061 1951 14 SI MM NOT_NAMED 1951-02-20 15:00:00 TS -13.8263 48.5759 main 0 0 P____P___PP___ SH201951 -13.5424 48.6200 -1 -14.6732 48.3963 99 -13.5424 48.6200 TC 35 -13.5472 48.6673 2 4 256
1951046S11061 1951 14 SI MM NOT_NAMED 1951-02-20 18:00:00 TS -13.8814 48.3853 main 0 0 O____P___OO___ jtwc_sh SH201951 -13.6000 48.5000 -1 -14.7255 48.0413 99 -13.6000 48.5000 TC 35 -13.6000 48.5000 2 4 250
1951046S11061 1951 14 SI MM NOT_NAMED 1951-02-20 21:00:00 TS -13.9618 48.1892 main 0 0 P____P___PP___ SH201951 -13.6925 48.3575 -1 -14.7810 47.7061 99 -13.6925 48.3575 TC 35 -13.6812 48.3358 2 4 245
1951046S11061 1951 14 SI MM NOT_NAMED 1951-02-21 00:00:00 TS -14.0550 47.9940 main 10 10 O____P___OP___ jtwc_sh SH201951 -13.8000 48.2000 -1 -14.8429 47.3889 99 -13.8000 48.2000 TC 35 -13.7770 48.1872 2 4 244
1951046S11061 1951 14 SI MM NOT_NAMED 1951-02-21 03:00:00 TS -14.1497 47.7919 main 15 10 P____P___PP___ SH201951 -13.8999 48.0300 -1 -14.9148 47.0875 99 -13.8999 48.0300 TC 35 -13.8843 48.0201 2 5 246
1951046S11061 1951 14 SI MM NOT_NAMED 1951-02-21 06:00:00 TS -14.2500 47.5500 reunion main 24 24 O____O___OO___ jtwc_sh SH201951 -14.0000 47.8000 -1 -15.0000 46.8000 99 9.90000 -14.0000 47.8000 TC 35 -14.0000 47.8000 2 6 250
1951046S11061 1951 14 SI MM NOT_NAMED 1951-02-21 09:00:00 TS -14.3491 47.2340 main 55 49 P____P___PP___ SH201951 -14.0925 47.4799 -1 -15.1016 46.4938 99 -14.0925 47.4799 TC 35 -14.1099 47.4824 2 7 252
1951046S11061 1951 14 SI MM NOT_NAMED 1951-02-21 12:00:00 TS -14.4607 46.8780 main 62 62 O____P___OP___ jtwc_sh SH201951 -14.2000 47.1000 -1 -15.2151 46.2021 99 -14.2000 47.1000 TC 35 -14.2277 47.1099 2 7 251
1951046S11061 1951 14 SI MM NOT_NAMED 1951-02-21 15:00:00 TS -14.5953 46.5083 main 84 79 P____P___PP___ SH201951 -14.3425 46.7000 -1 -15.3396 45.9257 99 -14.3425 46.7000 TC 35 -14.3567 46.7074 2 8 248
1951046S11061 1951 14 SI MM NOT_NAMED 1951-02-21 18:00:00 TS -14.7436 46.1413 main 95 85 O____P___OO___ jtwc_sh SH201951 -14.5000 46.3000 -1 -15.4745 45.6653 99 -14.5000 46.3000 TC 35 -14.5000 46.3000 2 7 247
1951046S11061 1951 14 SI MM NOT_NAMED 1951-02-21 21:00:00 TS -14.8900 45.8035 main 101 95 P____P___PP___ SH201951 -14.6424 45.9499 -1 -15.6187 45.4218 99 -14.6424 45.9499 TC 35 -14.6567 45.8926 2 7 245
1951046S11061 1951 14 SI MM NOT_NAMED 1951-02-22 00:00:00 TS -15.0498 45.4715 main 101 84 O____P___OP___ jtwc_sh SH201951 -14.8000 45.6000 -1 -15.7716 45.1958 99 -14.8000 45.6000 TC 35 -14.8277 45.4902 2 7 243
1951046S11061 1951 14 SI MM NOT_NAMED 1951-02-22 03:00:00 TS -15.2318 45.1190 main 89 70 P____P___PP___ SH201951 -14.9926 45.1850 -1 -15.9323 44.9883 99 -14.9926 45.1850 TC 35 -15.0099 45.1176 2 8 240
1951046S11061 1951 14 SI MM NOT_NAMED 1951-02-22 06:00:00 TS -15.4250 44.8000 reunion main 74 64 O____O___OO___ jtwc_sh SH201951 -15.2000 44.8000 -1 -16.1000 44.8000 99 9.90000 -15.2000 44.8000 TC 35 -15.2000 44.8000 2 7 235
1951046S11061 1951 14 SI MM NOT_NAMED 1951-02-22 09:00:00 TS -15.6162 44.5416 main 77 55 P____P___PP___ SH201951 -15.3999 44.5050 -1 -16.2724 44.6094 99 -15.3999 44.5050 TC 35 -15.3925 44.5470 2 6 228
1951046S11061 1951 14 SI MM NOT_NAMED 1951-02-22 12:00:00 TS -15.8115 44.3475 main 56 39 O____P___OP___ jtwc_sh SH201951 -15.6000 44.3000 -1 -16.4539 44.4375 99 -15.6000 44.3000 TC 35 -15.5922 44.3523 2 5 219
1951046S11061 1951 14 SI MM NOT_NAMED 1951-02-22 15:00:00 TS -16.0094 44.2077 main 39 30 P____P___PP___ SH201951 -15.8000 44.1699 -1 -16.6420 44.2845 99 -15.8000 44.1699 TC 35 -15.7957 44.2065 2 5 210
1951046S11061 1951 14 SI MM NOT_NAMED 1951-02-22 18:00:00 TS -16.2086 44.1125 main 33 32 O____P___OO___ jtwc_sh SH201951 -16.0000 44.1000 -1 -16.8345 44.1502 99 -16.0000 44.1000 TC 35 -16.0000 44.1000 2 4 203
1951046S11061 1951 14 SI MM NOT_NAMED 1951-02-22 21:00:00 TS -16.4082 44.0323 main 42 42 P____P___PP___ SH201951 -16.2000 44.0425 -1 -17.0289 44.0346 99 -16.2000 44.0425 TC 35 -16.2040 44.0098 2 4 198
1951046S11061 1951 14 SI MM NOT_NAMED 1951-02-23 00:00:00 TS -16.6076 43.9731 main 42 39 O____P___OP___ jtwc_sh SH201951 -16.4000 44.0000 -1 -17.2228 43.9377 99 -16.4000 44.0000 TC 35 -16.4074 43.9548 2 4 195
1951046S11061 1951 14 SI MM NOT_NAMED 1951-02-23 03:00:00 TS -16.8053 43.9205 main 44 30 P____P___PP___ SH201951 -16.6000 43.9500 -1 -17.4140 43.8595 99 -16.6000 43.9500 TC 35 -16.6071 43.9224 2 4 193
1951046S11061 1951 14 SI MM NOT_NAMED 1951-02-23 06:00:00 TS -17.0000 43.8750 reunion main 30 24 O____O___OO___ jtwc_sh SH201951 -16.8000 43.9000 -1 -17.6000 43.8000 99 9.90000 -16.8000 43.9000 TC 35 -16.8000 43.9000 2 4 194
1951046S11061 1951 14 SI MM NOT_NAMED 1951-02-23 09:00:00 TS -17.1936 43.8215 main 30 15 P____P___PP___ SH201951 -17.0075 43.8425 -1 -17.7774 43.7493 99 -17.0075 43.8425 TC 30 -16.9822 43.8516 2 4 193
1951046S11061 1951 14 SI MM NOT_NAMED 1951-02-23 12:00:00 TS -17.3772 43.7830 main 15 10 O____P___OP___ jtwc_sh SH201951 -17.2000 43.8000 -1 -17.9513 43.7194 99 -17.2000 43.8000 TC 25 -17.1575 43.8126 2 4 189
1951046S11061 1951 14 SI MM NOT_NAMED 1951-02-23 15:00:00 TS -17.5414 43.7673 main 10 10 P____P___PP___ SH201951 -17.3575 43.7850 -1 -18.1214 43.7071 99 -17.3575 43.7850 TC 25 -17.3290 43.7923 2 3 0
1951046S11061 1951 14 SI MM NOT_NAMED 1951-02-23 18:00:00 TS -17.6968 43.7773 main 21 21 O____P___OO___ jtwc_sh SH201951 -17.5000 43.8000 -1 -18.2873 43.7093 99 -17.5000 43.8000 TC 25 -17.5000 43.8000 1 3 172
1951046S11061 1951 14 SI MM NOT_NAMED 1951-02-23 21:00:00 TS -17.8552 43.8118 main 21 10 P____P___PP___ SH201951 -17.6425 43.8350 -1 -18.4484 43.7228 99 -17.6425 43.8350 TC 25 -17.6872 43.8542 1 3 165
1951046S11061 1951 14 SI MM NOT_NAMED 1951-02-24 00:00:00 TS -18.0193 43.8698 main 10 10 O____P___OP___ jtwc_sh SH201951 -17.8000 43.9000 -1 -18.6045 43.7446 99 -17.8000 43.9000 TC 25 -17.8726 43.9348 1 4 159
1951046S11061 1951 14 SI MM NOT_NAMED 1951-02-24 03:00:00 TS -18.2042 43.9523 main 0 0 P____P___PP___ SH201951 -18.0075 44.0074 -1 -18.7552 43.7714 99 -18.0075 44.0074 TC 25 -18.0466 44.0230 1 4 157
1951046S11061 1951 14 SI MM NOT_NAMED 1951-02-24 06:00:00 TS -18.3750 44.0250 reunion main 0 0 O____O___OO___ jtwc_sh SH201951 -18.2000 44.1000 -1 -18.9000 43.8000 99 9.90000 -18.2000 44.1000 TC 25 -18.2000 44.1000 1 3 161
1951046S11061 1951 14 SI MM NOT_NAMED 1951-02-24 09:00:00 TS -18.4912 44.0529 main 0 0 P____P___PP___ SH201951 -18.3150 44.1076 -1 -19.0254 43.8571 99 -18.3150 44.1076 TC 25 -18.3094 44.1395 1 2 171
1951046S11061 1951 14 SI MM NOT_NAMED 1951-02-24 12:00:00 TS -18.5857 44.0722 main 10 10 O____P___OP___ jtwc_sh SH201951 -18.4000 44.1000 -1 -19.1428 43.9236 99 -18.4000 44.1000 TC 25 -18.4000 44.1651 1 2 166
1951046S11061 1951 14 SI MM NOT_NAMED 1951-02-24 15:00:00 TS -18.6829 44.1183 main 10 0 P____P___PP___ SH201951 -18.4925 44.1500 -1 -19.2561 43.9902 99 -18.4925 44.1500 TC 25 -18.4906 44.1832 1 2 157
1951046S11061 1951 14 SI MM NOT_NAMED 1951-02-24 18:00:00 TS -18.7923 44.1619 main 0 0 O____P___OO___ jtwc_sh SH201951 -18.6000 44.2000 -1 -19.3692 44.0476 99 -18.6000 44.2000 TC 25 -18.6000 44.2000 1 3 163
1951046S11061 1951 14 SI MM NOT_NAMED 1951-02-24 21:00:00 TS -18.9254 44.1920 main 0 0 P____P___PP___ SH201951 -18.7350 44.2000 -1 -19.4863 44.0867 99 -18.7350 44.2000 TC 25 -18.7451 44.2814 1 3 173
1951046S11061 1951 14 SI MM NOT_NAMED 1951-02-25 00:00:00 TS -19.0808 44.2130 main 0 0 O____P___OP___ jtwc_sh SH201951 -18.9000 44.2000 -1 -19.6111 44.0980 99 -18.9000 44.2000 TC 25 -18.9122 44.3542 1 3 169
1951046S11061 1951 14 SI MM NOT_NAMED 1951-02-25 03:00:00 TS -19.2577 44.2517 main 10 10 P____P___PP___ SH201951 -19.0925 44.2798 -1 -19.7477 44.0722 99 -19.0925 44.2798 TC 25 -19.0981 44.3749 1 4 0
1951046S11061 1951 14 SI MM NOT_NAMED 1951-02-25 06:00:00 TS -19.4500 44.2250 reunion main 23 30 O____O___OO___ jtwc_sh SH201951 -19.3000 44.3000 -1 -19.9000 44.0000 99 9.90000 -19.3000 44.3000 TC 25 -19.3000 44.3000 1 4 203
1951046S11061 1951 14 SI MM NOT_NAMED 1951-02-25 09:00:00 TS -19.6503 44.0753 main 33 33 P____P___PP___ SH201951 -19.4924 44.1749 -1 -20.0936 43.8590 99 -19.4924 44.1749 TC 25 -19.5229 44.0923 1 6 223
1951046S11061 1951 14 SI MM NOT_NAMED 1951-02-25 12:00:00 TS -19.8653 43.8144 main 63 63 O____P___OP___ jtwc_sh SH201951 -19.7000 43.9000 -1 -20.3036 43.6721 99 -19.7000 43.9000 TC 25 -19.7576 43.7856 1 7 232
1951046S11061 1951 14 SI MM NOT_NAMED 1951-02-25 15:00:00 TS -20.1071 43.4583 main 76 76 P____P___PP___ SH201951 -19.9576 43.4877 -1 -20.5245 43.4467 99 -19.9576 43.4877 TC 25 -19.9885 43.4110 1 9 237
1951046S11061 1951 14 SI MM NOT_NAMED 1951-02-25 18:00:00 TS -20.3377 43.0475 main 109 103 O____P___OO___ jtwc_sh SH201951 -20.2000 43.0000 -1 -20.7508 43.1900 99 -20.2000 43.0000 TC 25 -20.2000 43.0000 1 9 242
1951046S11061 1951 14 SI MM NOT_NAMED 1951-02-25 21:00:00 TS -20.5136 42.6442 main 137 137 P____P___PP___ SH201951 -20.3649 42.5423 -1 -20.9769 42.9094 99 -20.3649 42.5423 TC 25 -20.3475 42.5828 1 8 246
1951046S11061 1951 14 SI MM NOT_NAMED 1951-02-26 00:00:00 TS -20.6688 42.2385 main 155 155 O____P___OP___ jtwc_sh SH201951 -20.5000 42.1000 -1 -21.1974 42.6126 99 -20.5000 42.1000 TC 25 -20.4780 42.1416 1 8 248
1951046S11061 1951 14 SI MM NOT_NAMED 1951-02-26 03:00:00 TS -20.8203 41.8415 main 188 184 P____P___PP___ SH201951 -20.6274 41.6773 -1 -21.4069 42.3069 99 -20.6274 41.6773 TC 25 -20.6194 41.7047 1 8 245
1951046S11061 1951 14 SI MM NOT_NAMED 1951-02-26 06:00:00 TS -21.0000 41.4750 reunion main 212 212 O____O___OO___ jtwc_sh SH201951 -20.8000 41.3000 -1 -21.6000 42.0000 99 9.90000 -20.8000 41.3000 TC 25 -20.8000 41.3000 1 8 237
1951046S11061 1951 14 SI MM NOT_NAMED 1951-02-26 09:00:00 TS -21.2391 41.1477 main 244 239 P____P___PP___ SH201951 -21.0774 40.9850 -1 -21.7411 41.6690 99 -21.0774 40.9850 TC 25 -21.0605 40.9520 1 8 229
1951046S11061 1951 14 SI MM NOT_NAMED 1951-02-26 12:00:00 TS -21.5068 40.8412 main 259 256 O____P___OP___ jtwc_sh SH201951 -21.4000 40.7000 -1 -21.8653 41.3248 99 -21.4000 40.7000 TC 25 -21.3621 40.6401 1 8 227
1951046S11061 1951 14 SI MM NOT_NAMED 1951-02-26 15:00:00 TS -21.7653 40.5308 main 281 281 P____P___PP___ SH201951 -21.7000 40.3924 -1 -21.9786 40.9803 99 -21.7000 40.3924 TC 25 -21.6825 40.3582 1 8 227
1951046S11061 1951 14 SI MM NOT_NAMED 1951-02-26 18:00:00 TS -22.0218 40.2370 main 309 309 O____P___OO___ jtwc_sh SH201951 -22.0000 40.1000 -1 -22.0872 40.6482 99 -22.0000 40.1000 TC 25 -22.0000 40.1000 1 7 226
1951046S11061 1951 14 SI MM NOT_NAMED 1951-02-26 21:00:00 TS -22.2817 39.9571 main 329 329 P____P___PP___ SH201951 -22.3075 39.8349 -1 -22.1972 40.3414 99 -22.3075 39.8349 TC 25 -22.3146 39.8170 1 7 224
1951046S11061 1951 14 SI MM NOT_NAMED 1951-02-27 00:00:00 TS -22.5331 39.7082 main 360 360 O____P___OP___ jtwc_sh SH201951 -22.6000 39.6000 -1 -22.3151 40.0725 99 -22.6000 39.6000 TC 25 -22.6175 39.5603 1 7 221
1951046S11061 1951 14 SI MM NOT_NAMED 1951-02-27 03:00:00 TS -22.7735 39.4857 main 383 378 P____P___PP___ SH201951 -22.8800 39.3700 -1 -22.4472 39.8545 99 -22.8800 39.3700 TC 25 -22.8866 39.3484 1 6 219
1951046S11061 1951 14 SI MM NOT_NAMED 1951-02-27 06:00:00 TS -22.9750 39.3250 reunion main 378 368 O____O___OO___ jtwc_sh SH201951 -23.1000 39.2000 -1 -22.6000 39.7000 99 9.90000 -23.1000 39.2000 TC 25 -23.1000 39.2000 1 4 213
1951046S11061 1951 14 SI MM NOT_NAMED 1951-02-27 09:00:00 TS -23.1280 39.2387 main 368 368 P____P___PP___ SH201951 -23.2300 39.1124 -1 -22.8115 39.6073 99 -23.2300 39.1124 TC 25 -23.2404 39.1226 1 3 200
1951046S11061 1951 14 SI MM NOT_NAMED 1951-02-27 12:00:00 TS -23.2423 39.2206 main 369 369 O____P___OP___ jtwc_sh SH201951 -23.3000 39.1000 -1 -23.0445 39.5732 99 -23.3000 39.1000 TC 25 -23.3247 39.1094 1 2 0
1951046S11061 1951 14 SI MM NOT_NAMED 1951-02-27 15:00:00 TS -23.3484 39.2551 main 380 380 P____P___PP___ SH201951 -23.3650 39.1425 -1 -23.2919 39.5940 99 -23.3650 39.1425 TC 25 -23.3717 39.1415 1 2 156
1951046S11061 1951 14 SI MM NOT_NAMED 1951-02-27 18:00:00 TS -23.4367 39.3166 main 382 382 O____P___OO___ jtwc_sh SH201951 -23.4000 39.2000 -1 -23.5467 39.6663 99 -23.4000 39.2000 TC 25 -23.4000 39.2000 1 2 158
1951046S11061 1951 14 SI MM NOT_NAMED 1951-02-27 21:00:00 TS -23.5040 39.3283 main 383 383 P____P___PP___ SH201951 -23.4000 39.1850 -1 -23.8021 39.7867 99 -23.4000 39.1850 TC 25 -23.4139 39.1567 1 1 156
1951046S11061 1951 14 SI MM NOT_NAMED 1951-02-28 00:00:00 TS -23.5672 39.3751 main 395 395 O____P___OP___ jtwc_sh SH201951 -23.4000 39.2000 -1 -24.0508 39.9515 99 -23.4000 39.2000 TC 25 -23.4180 39.1488 1 2 135
1951046S11061 1951 14 SI MM NOT_NAMED 1951-02-28 03:00:00 TS -23.6446 39.4798 main 405 390 P____P___PP___ SH201951 -23.4271 39.2602 -1 -24.2858 40.1571 99 -23.4271 39.2602 TC 30 -23.4382 39.2415 1 4 120
1951046S11061 1951 14 SI MM NOT_NAMED 1951-02-28 06:00:00 TS -23.7500 39.7250 reunion main 390 356 O____O___OO___ jtwc_sh SH201951 -23.5000 39.5000 -1 -24.5000 40.4000 99 9.90000 -23.5000 39.5000 TC 35 -23.5000 39.5000 2 7 111
1951046S11061 1951 14 SI MM NOT_NAMED 1951-02-28 09:00:00 TS -23.8890 40.1708 main 346 296 P____P___PP___ SH201951 -23.6276 40.0101 -1 -24.6672 40.6411 99 -23.6276 40.0101 TC 35 -23.6339 40.0218 2 10 108
1951046S11061 1951 14 SI MM NOT_NAMED 1951-02-28 12:00:00 TS -24.0558 40.7578 main 287 230 O____P___OP___ jtwc_sh SH201951 -23.8000 40.7000 -1 -24.8152 40.9252 99 -23.8000 40.7000 TC 35 -23.8080 40.7061 2 12 107
1951046S11061 1951 14 SI MM NOT_NAMED 1951-02-28 15:00:00 TS -24.2378 41.4059 main 230 175 P____P___PP___ SH201951 -24.0003 41.4573 -1 -24.9477 41.2464 99 -24.0003 41.4573 TC 35 -24.0027 41.4626 2 12 107
1951046S11061 1951 14 SI MM NOT_NAMED 1951-02-28 18:00:00 TS -24.4170 42.0497 main 175 120 O____P___OO___ jtwc_sh SH201951 -24.2000 42.2000 -1 -25.0680 41.5987 99 -24.2000 42.2000 TC 35 -24.2000 42.2000 2 11 107
1951046S11061 1951 14 SI MM NOT_NAMED 1951-02-28 21:00:00 TS -24.5570 42.5821 main 121 71 P____P___PP___ SH201951 -24.3494 42.7804 -1 -25.1798 41.9761 99 -24.3494 42.7804 TC 35 -24.3494 42.7913 2 10 107
1951046S11061 1951 14 SI MM NOT_NAMED 1951-03-01 00:00:00 TS -24.6975 43.0799 main 71 37 O____P___OP___ jtwc_sh SH201951 -24.5000 43.3000 -1 -25.2866 42.3727 99 -24.5000 43.3000 TC 35 -24.5035 43.3469 2 10 108
1951046S11061 1951 14 SI MM NOT_NAMED 1951-03-01 03:00:00 TS -24.8606 43.5905 main 37 0 P____P___PP___ SH201951 -24.6848 43.8502 -1 -25.3921 42.7827 99 -24.6848 43.8502 TC 35 -24.6809 43.8790 2 10 111
1951046S11061 1951 14 SI MM NOT_NAMED 1951-03-01 06:00:00 TS -25.0500 44.1000 reunion main 0 0 O____O___OO___ jtwc_sh SH201951 -24.9000 44.4000 -1 -25.5000 43.2000 99 9.90000 -24.9000 44.4000 TC 35 -24.9000 44.4000 2 10 113
1951046S11061 1951 14 SI MM NOT_NAMED 1951-03-01 09:00:00 TS -25.2536 44.6211 main 0 0 P____P___PP___ SH201951 -25.1199 44.9579 -1 -25.6132 43.6199 99 -25.1199 44.9579 TC 30 -25.1613 44.9487 2 10 116
1951046S11061 1951 14 SI MM NOT_NAMED 1951-03-01 12:00:00 TS -25.4997 45.1323 main 0 0 O____P___OP___ jtwc_sh SH201951 -25.4000 45.5000 -1 -25.7317 44.0413 99 -25.4000 45.5000 TC 25 -25.4672 45.4879 2 11 121
1951046S11061 1951 14 SI MM NOT_NAMED 1951-03-01 15:00:00 TS -25.8022 45.6257 main 24 24 P____P___PP___ SH201951 -25.7698 46.0151 -1 -25.8544 44.4643 99 -25.7698 46.0151 TC 25 -25.8145 46.0083 2 11 127
1951046S11061 1951 14 SI MM NOT_NAMED 1951-03-01 18:00:00 TS -26.1451 46.0972 main 81 81 O____P___OO___ jtwc_sh SH201951 -26.2000 46.5000 -1 -25.9805 44.8888 99 -26.2000 46.5000 TC 25 -26.2000 46.5000 7 11 130
1951046S11061 1951 14 SI MM NOT_NAMED 1951-03-01 21:00:00 TS -26.5018 46.5529 main 145 145 P____P___PP___ SH201951 -26.6424 46.9653 -1 -26.1091 45.3148 99 -26.6424 46.9653 TC 25 -26.6135 46.9663 7 12 132
1951046S11061 1951 14 SI MM NOT_NAMED 1951-03-02 00:00:00 TS -26.9176 47.0692 main 192 192 O____P___OP___ jtwc_sh SH201951 -27.1000 47.4000 -1 -26.2391 45.7420 99 -27.1000 47.4000 TC 25 -27.0618 47.4030 7 13 134
1951046S11061 1951 14 SI MM NOT_NAMED 1951-03-02 03:00:00 TS -27.3754 47.5798 main 258 258 P____P___PP___ SH201951 -27.5499 47.8153 -1 -26.3698 46.1705 99 -27.5499 47.8153 TC 25 -27.5293 47.8132 7 13 137
1951046S11061 1951 14 SI MM NOT_NAMED 1951-03-02 06:00:00 TS -27.8846 48.0769 reunion main 328 328 O____O___OO___ jtwc_sh SH201951 -28.0000 48.2000 -1 -26.5000 46.6000 99 9.90000 -28.0000 48.2000 TC 25 -28.0000 48.2000 7 14 141
1951046S11061 1951 14 SI MM NOT_NAMED 1951-03-02 09:00:00 TS -28.4524 48.5641 main 409 409 P________PP___ SH201951 -28.4498 48.5579 -1 99 -28.4498 48.5579 TC 25 -28.4576 48.5766 7 13 144
1951046S11061 1951 14 SI MM NOT_NAMED 1951-03-02 12:00:00 TS -28.9048 48.9104 main 462 462 O________OP___ jtwc_sh SH201951 -28.9000 48.9000 -1 99 -28.9000 48.9000 TC 25 -28.9143 48.9312 7 11 146
1951046S11061 1951 14 SI MM NOT_NAMED 1951-03-02 15:00:00 TS -29.3596 49.2569 main 529 529 P________PP___ SH201951 -29.3574 49.2502 -1 99 -29.3574 49.2502 TC 25 -29.3639 49.2702 7 11 146
1951046S11061 1951 14 SI MM NOT_NAMED 1951-03-02 18:00:00 TS -29.8000 49.6000 main 582 582 O________OO___ jtwc_sh SH201951 -29.8000 49.6000 -1 99 -29.8000 49.6000 TC 25 -29.8000 49.6000 7 10 145
1951046S11061 1951 14 SI MM NOT_NAMED 1951-03-02 21:00:00 TS -30.2110 49.9472 main 636 636 P________PP___ SH201951 -30.2075 49.9578 -1 99 -30.2075 49.9578 TC 25 -30.2179 49.9260 7 10 144
1951046S11061 1951 14 SI MM NOT_NAMED 1951-03-03 00:00:00 TS -30.6069 50.2835 main 693 693 O________OP___ jtwc_sh SH201951 -30.6000 50.3000 -1 99 -30.6000 50.3000 TC 25 -30.6207 50.2505 7 10 145
1951046S11061 1951 14 SI MM NOT_NAMED 1951-03-03 03:00:00 TS -31.0028 50.5979 main 746 746 P________PP___ SH201951 -30.9976 50.6095 -1 99 -30.9976 50.6095 TC 25 -31.0132 50.5746 7 10 146
1951046S11061 1951 14 SI MM NOT_NAMED 1951-03-03 06:00:00 TS -31.4000 50.9000 main 799 O________OO___ jtwc_sh SH201951 -31.4000 50.9000 -1 -31.4000 50.9000 TC 25 -31.4000 50.9000 7 9 147

IBTrACS Databaseについて

本データベースは、米国NOAAが公開する1842年以降の世界の熱帯低気圧のベストトラックデータアーカイブInternational Best Track Archive for Climate Stewardship (IBTrACS)を、ウェブで閲覧しやすい形式に変換したものです。

最終更新日:2021-10-21